Algoa — ZR4311 — position and weather

sailwx.info

Track history (hours):
 
Tides and Currents Weather Stations Pressure Air Temp Water Temp Dewpoint Dewpoint Depression Visibility Wind Speed Wind Dir Waves Ship Positions

Oceanographic research ship Algoa (South Africa)

Detailed information on ship capabilities available from University of Delaware's Ocean Information Center.

Last reported at 2019-Jun-19 20:28 UTC. Time now 2019-Jun-19 20:50 UTC.
Position S 33°54' E 018°26'.

Type: Other ship. MMSI: 599996424.

Date/timePositionNaut miles runAvg speedWind from/ knotsBaromVisibWave heightAir tempDewpointWater temp
2019-Jun-19 20:28S 33°54' E 018°26'0 0.0
2019-Jun-19 19:57S 33°54' E 018°26'0 0.0
2019-Jun-19 19:21S 33°54' E 018°26'0 0.0
2019-Jun-19 18:36S 33°54' E 018°26'0 0.0
2019-Jun-19 18:22S 33°54' E 018°26'0 0.0
2019-Jun-19 17:57S 33°54' E 018°26'0 0.0
2019-Jun-19 17:26S 33°54' E 018°26'0 0.0
2019-Jun-19 16:24S 33°54' E 018°26'0 0.0
2019-Jun-19 16:00S 33°54' E 018°26'0 0.3
2019-Jun-19 15:30S 33°54' E 018°26'2 4.4
2019-Jun-19 15:00S 33°53' E 018°23'910.9
2019-Jun-19 14:10S 33°54' E 018°12'1411.1
2019-Jun-19 12:54S 33°54' E 017°55'18 8.5
2019-Jun-19 10:47S 33°56' E 017°34'  
2019-Jun-14 14:35S 33°55' E 017°52'110.0
2019-Jun-14 14:27S 33°55' E 017°53'6 9.8
2019-Jun-14 13:51S 33°55' E 018°00'10 9.8
2019-Jun-14 12:48S 33°54' E 018°13'3 9.9
2019-Jun-14 12:29S 33°54' E 018°17'5 9.6
2019-Jun-14 12:00S 33°53' E 018°22'3 6.5
2019-Jun-14 11:30S 33°54' E 018°26'0 0.5
2019-Jun-14 11:00S 33°54' E 018°26'0 0.0
2019-Jun-14 10:30S 33°54' E 018°26'0 0.0
2019-Jun-14 09:59S 33°54' E 018°26'0 0.0
2019-Jun-14 09:29S 33°54' E 018°26'0 0.0
2019-Jun-14 08:59S 33°54' E 018°26'0 0.0
2019-Jun-14 08:29S 33°54' E 018°26'0 0.0
2019-Jun-14 07:59S 33°54' E 018°26'0 0.0
2019-Jun-14 07:29S 33°54' E 018°26'0 0.0
2019-Jun-14 06:59S 33°54' E 018°26'0 0.0
2019-Jun-14 06:29S 33°54' E 018°26'0 0.0
2019-Jun-14 05:58S 33°54' E 018°26'0 0.0
2019-Jun-14 05:28S 33°54' E 018°26'0 0.0
2019-Jun-14 04:55S 33°54' E 018°26'0 0.0
2019-Jun-14 04:22S 33°54' E 018°26'0 0.0
2019-Jun-14 03:55S 33°54' E 018°26'0 0.0
2019-Jun-14 03:28S 33°54' E 018°26'0 0.0
2019-Jun-14 02:58S 33°54' E 018°26'0 0.0
2019-Jun-14 02:28S 33°54' E 018°26'0 0.0
2019-Jun-14 01:58S 33°54' E 018°26'0 0.0
2019-Jun-14 01:28S 33°54' E 018°26'0 0.0
2019-Jun-14 00:58S 33°54' E 018°26'0 0.0
2019-Jun-14 00:28S 33°54' E 018°26'0 0.0
2019-Jun-13 23:58S 33°54' E 018°26'0 0.0
2019-Jun-13 23:28S 33°54' E 018°26'0 0.0
2019-Jun-13 22:58S 33°54' E 018°26'0 0.0
2019-Jun-13 22:28S 33°54' E 018°26'0 0.0
2019-Jun-13 21:58S 33°54' E 018°26'0 0.0
2019-Jun-13 21:28S 33°54' E 018°26'0 0.0
2019-Jun-13 20:58S 33°54' E 018°26'0 0.0
2019-Jun-13 20:28S 33°54' E 018°26'0 0.0
2019-Jun-13 19:58S 33°54' E 018°26'0 0.0
2019-Jun-13 19:28S 33°54' E 018°26'0 0.0
2019-Jun-13 18:58S 33°54' E 018°26'0 0.0
2019-Jun-13 18:28S 33°54' E 018°26'0 0.0
2019-Jun-13 17:58S 33°54' E 018°26'0 0.0
2019-Jun-13 17:28S 33°54' E 018°26'0 0.0
2019-Jun-13 16:58S 33°54' E 018°26'0 0.0
2019-Jun-13 16:28S 33°54' E 018°26'0 0.0
2019-Jun-13 15:46S 33°54' E 018°26'0 0.0
2019-Jun-13 15:28S 33°54' E 018°26'0 0.0
2019-Jun-13 14:52S 33°54' E 018°26'0 0.0
2019-Jun-13 14:28S 33°54' E 018°26'0 0.0
2019-Jun-13 13:55S 33°54' E 018°26'0 0.0
2019-Jun-13 13:28S 33°54' E 018°26'0 0.0
2019-Jun-13 12:58S 33°54' E 018°26'0 0.0
2019-Jun-13 12:28S 33°54' E 018°26'0 0.0
2019-Jun-13 11:52S 33°54' E 018°26'0 0.0
2019-Jun-13 11:28S 33°54' E 018°26'0 0.0
2019-Jun-13 10:55S 33°54' E 018°26'0 0.0
2019-Jun-13 10:22S 33°54' E 018°26'0 0.0
2019-Jun-13 09:58S 33°54' E 018°26'0 0.0
2019-Jun-13 09:25S 33°54' E 018°26'0 0.0
2019-Jun-13 08:58S 33°54' E 018°26'0 0.0
2019-Jun-13 08:25S 33°54' E 018°26'0 0.0
2019-Jun-13 07:52S 33°54' E 018°26'0 0.0
2019-Jun-13 07:28S 33°54' E 018°26'0 0.0
2019-Jun-13 06:58S 33°54' E 018°26'0 0.0
2019-Jun-13 06:28S 33°54' E 018°26'0 0.0
2019-Jun-13 05:52S 33°54' E 018°26'0 0.0
2019-Jun-13 05:28S 33°54' E 018°26'0 0.0
2019-Jun-13 04:58S 33°54' E 018°26'0 0.0
2019-Jun-13 04:25S 33°54' E 018°26'0 0.0
2019-Jun-13 03:58S 33°54' E 018°26'0 0.0
2019-Jun-13 03:19S 33°54' E 018°26'0 0.0
2019-Jun-13 02:49S 33°54' E 018°26'0 0.0
2019-Jun-13 02:25S 33°54' E 018°26'0 0.0
2019-Jun-13 01:55S 33°54' E 018°26'0 0.0
2019-Jun-13 01:28S 33°54' E 018°26'0 0.0
2019-Jun-13 00:58S 33°54' E 018°26'0 0.0
2019-Jun-13 00:28S 33°54' E 018°26'0 0.0
2019-Jun-13 00:01S 33°54' E 018°26'0 0.0
2019-Jun-12 23:31S 33°54' E 018°26'0 0.0
2019-Jun-12 23:00S 33°54' E 018°26'0 0.0
2019-Jun-12 22:30S 33°54' E 018°26'0 0.0
2019-Jun-12 21:57S 33°54' E 018°26'0 0.0
2019-Jun-12 21:30S 33°54' E 018°26'0 0.0
2019-Jun-12 21:00S 33°54' E 018°26'0 0.0
2019-Jun-12 20:30S 33°54' E 018°26'0 0.0
2019-Jun-12 20:00S 33°54' E 018°26'0 0.0
2019-Jun-12 19:21S 33°54' E 018°26'0 0.0
2019-Jun-12 18:45S 33°54' E 018°26'0 0.0
2019-Jun-12 18:24S 33°54' E 018°26'0 0.0
2019-Jun-12 18:00S 33°54' E 018°26'0 0.0
2019-Jun-12 17:27S 33°54' E 018°26'0 0.0
2019-Jun-12 17:00S 33°54' E 018°26'0 0.0
2019-Jun-12 16:24S 33°54' E 018°26'0 0.0
2019-Jun-12 15:57S 33°54' E 018°26'0 0.0
2019-Jun-12 15:30S 33°54' E 018°26'0 0.0
2019-Jun-12 15:00S 33°54' E 018°26'0 0.0
2019-Jun-12 14:30S 33°54' E 018°26'0 0.0
2019-Jun-12 14:00S 33°54' E 018°26'0 0.0
2019-Jun-12 13:30S 33°54' E 018°26'0 0.0
2019-Jun-12 12:57S 33°54' E 018°26'0 0.0
2019-Jun-12 12:30S 33°54' E 018°26'0 0.0
2019-Jun-12 12:00S 33°54' E 018°26'0 0.0
2019-Jun-12 11:30S 33°54' E 018°26'0 0.0
2019-Jun-12 10:57S 33°54' E 018°26'0 0.0
2019-Jun-12 10:30S 33°54' E 018°26'0 0.0
2019-Jun-12 10:00S 33°54' E 018°26'0 0.0
2019-Jun-12 09:30S 33°54' E 018°26'0 0.0
2019-Jun-12 09:00S 33°54' E 018°26'0 0.0
2019-Jun-12 08:30S 33°54' E 018°26'0 0.0
2019-Jun-12 07:51S 33°54' E 018°26'0 0.0
2019-Jun-12 07:30S 33°54' E 018°26'0 0.0
2019-Jun-12 06:57S 33°54' E 018°26'0 0.0
2019-Jun-12 06:30S 33°54' E 018°26'0 0.0
2019-Jun-12 05:54S 33°54' E 018°26'0 0.0
2019-Jun-12 05:27S 33°54' E 018°26'0 0.0
2019-Jun-12 04:57S 33°54' E 018°26'0 0.0
2019-Jun-12 04:27S 33°54' E 018°26'0 0.0
2019-Jun-12 04:00S 33°54' E 018°26'0 0.0
2019-Jun-12 03:27S 33°54' E 018°26'0 0.0
2019-Jun-12 02:57S 33°54' E 018°26'0 0.0
2019-Jun-12 02:00S 33°54' E 018°26'0 0.0
2019-Jun-12 01:30S 33°54' E 018°26'0 0.0
2019-Jun-12 01:00S 33°54' E 018°26'0 0.0
2019-Jun-12 00:27S 33°54' E 018°26'0 0.0
2019-Jun-11 23:54S 33°54' E 018°26'0 0.0
2019-Jun-11 23:30S 33°54' E 018°26'0 0.0
2019-Jun-11 22:57S 33°54' E 018°26'0 0.0
2019-Jun-11 22:30S 33°54' E 018°26'0 0.0
2019-Jun-11 22:00S 33°54' E 018°26'0 0.0
2019-Jun-11 21:30S 33°54' E 018°26'0 0.0
2019-Jun-11 20:54S 33°54' E 018°26'0 0.0
2019-Jun-11 20:30S 33°54' E 018°26'0 0.0
2019-Jun-11 20:00S 33°54' E 018°26'0 0.0
2019-Jun-11 19:27S 33°54' E 018°26'0 0.0
2019-Jun-11 18:57S 33°54' E 018°26'0 0.0
2019-Jun-11 18:21S 33°54' E 018°26'0 0.0
2019-Jun-11 17:57S 33°54' E 018°26'0 0.0
2019-Jun-11 17:15S 33°54' E 018°26'0 0.0
2019-Jun-11 17:00S 33°54' E 018°26'0 0.0
2019-Jun-11 16:21S 33°54' E 018°26'0 0.0
2019-Jun-11 15:56S 33°54' E 018°26'0 0.0
2019-Jun-11 15:17S 33°54' E 018°26'0 0.0
2019-Jun-11 14:59S 33°54' E 018°26'0 0.0
2019-Jun-11 14:29S 33°54' E 018°26'0 0.0
2019-Jun-11 13:59S 33°54' E 018°26'0 0.0
2019-Jun-11 13:29S 33°54' E 018°26'0 0.0
2019-Jun-11 12:59S 33°54' E 018°26'0 0.0
2019-Jun-11 12:29S 33°54' E 018°26'0 0.0
2019-Jun-11 11:59S 33°54' E 018°26'0 0.0
2019-Jun-11 11:29S 33°54' E 018°26'0 0.0
2019-Jun-11 10:56S 33°54' E 018°26'0 0.0
2019-Jun-11 10:29S 33°54' E 018°26'0 0.0
2019-Jun-11 09:59S 33°54' E 018°26'0 0.0
2019-Jun-11 09:29S 33°54' E 018°26'0 0.0
2019-Jun-11 08:59S 33°54' E 018°26'0 0.0
2019-Jun-11 08:29S 33°54' E 018°26'0 0.0
2019-Jun-11 07:56S 33°54' E 018°26'0 0.0
2019-Jun-11 07:30S 33°54' E 018°26'0 0.0
2019-Jun-11 07:00S 33°54' E 018°26'0 0.0
2019-Jun-11 06:30S 33°54' E 018°26'0 0.0
2019-Jun-11 05:57S 33°54' E 018°26'0 0.0
2019-Jun-11 05:27S 33°54' E 018°26'0 0.0
2019-Jun-11 05:00S 33°54' E 018°26'0 0.0
2019-Jun-11 04:30S 33°54' E 018°26'0 0.0
2019-Jun-11 03:51S 33°54' E 018°26'0 0.0
2019-Jun-11 03:21S 33°54' E 018°26'0 0.0
2019-Jun-11 02:45S 33°54' E 018°26'0 0.0
2019-Jun-11 02:21S 33°54' E 018°26'0 0.0
2019-Jun-11 01:48S 33°54' E 018°26'0 0.0
2019-Jun-11 01:30S 33°54' E 018°26'0 0.0
2019-Jun-11 00:57S 33°54' E 018°26'0 0.0
2019-Jun-11 00:30S 33°54' E 018°26'0 0.0
2019-Jun-11 00:00S 33°54' E 018°26'0 0.0
2019-Jun-10 23:27S 33°54' E 018°26'0 0.0
2019-Jun-10 22:54S 33°54' E 018°26'0 0.0
2019-Jun-10 22:27S 33°54' E 018°26'0 0.0
2019-Jun-10 21:57S 33°54' E 018°26'0 0.0
2019-Jun-10 21:27S 33°54' E 018°26'0 0.0
2019-Jun-10 20:57S 33°54' E 018°26'0 0.0
2019-Jun-10 20:30S 33°54' E 018°26'0 0.0
2019-Jun-10 19:57S 33°54' E 018°26'0 0.0
2019-Jun-10 19:30S 33°54' E 018°26'0 0.0
2019-Jun-10 18:57S 33°54' E 018°26'0 0.0
2019-Jun-10 18:30S 33°54' E 018°26'0 0.0
2019-Jun-10 18:00S 33°54' E 018°26'0 0.0
2019-Jun-10 17:15S 33°54' E 018°26'0 0.0
2019-Jun-10 16:57S 33°54' E 018°26'0 0.0
2019-Jun-10 16:24S 33°54' E 018°26'0 0.0
2019-Jun-10 15:48S 33°54' E 018°26'0 0.0
2019-Jun-10 15:27S 33°54' E 018°26'0 0.0
2019-Jun-10 14:57S 33°54' E 018°26'0 0.0
2019-Jun-10 14:30S 33°54' E 018°26'0 0.0
2019-Jun-10 13:36S 33°54' E 018°26'0 0.0
2019-Jun-10 13:27S 33°54' E 018°26'0 0.0
2019-Jun-10 13:00S 33°54' E 018°26'0 0.0
2019-Jun-10 12:30S 33°54' E 018°26'0 0.0
2019-Jun-10 12:00S 33°54' E 018°26'0 0.0
2019-Jun-10 11:27S 33°54' E 018°26'0 0.0
2019-Jun-10 11:00S 33°54' E 018°26'0 0.0
2019-Jun-10 10:27S 33°54' E 018°26'0 0.0
2019-Jun-10 10:00S 33°54' E 018°26'0 0.0
2019-Jun-10 09:27S 33°54' E 018°26'0 0.0
2019-Jun-10 09:00S 33°54' E 018°26'0 0.0
2019-Jun-10 08:30S 33°54' E 018°26'0 0.0
2019-Jun-10 08:00S 33°54' E 018°26'0 0.0
2019-Jun-10 07:21S 33°54' E 018°26'0 0.0
2019-Jun-10 07:00S 33°54' E 018°26'0 0.0
2019-Jun-10 06:30S 33°54' E 018°26'0 0.0
2019-Jun-10 06:00S 33°54' E 018°26'0 0.0
2019-Jun-10 05:30S 33°54' E 018°26'0 0.0
2019-Jun-10 04:57S 33°54' E 018°26'0 0.0
2019-Jun-10 04:27S 33°54' E 018°26'0 0.0
2019-Jun-10 03:51S 33°54' E 018°26'0 0.0
2019-Jun-10 03:27S 33°54' E 018°26'0 0.0
2019-Jun-10 02:57S 33°54' E 018°26'0 0.0
2019-Jun-10 02:30S 33°54' E 018°26'0 0.0
2019-Jun-10 01:59S 33°54' E 018°26'0 0.0
2019-Jun-10 01:29S 33°54' E 018°26'0 0.0
2019-Jun-10 00:59S 33°54' E 018°26'0 0.0
2019-Jun-10 00:26S 33°54' E 018°26'0 0.0
2019-Jun-09 23:56S 33°54' E 018°26'0 0.0
2019-Jun-09 23:20S 33°54' E 018°26'0 0.0
2019-Jun-09 22:32S 33°54' E 018°26'0 0.0
2019-Jun-09 22:11S 33°54' E 018°26'0 0.0
2019-Jun-09 21:53S 33°54' E 018°26'0 0.0
2019-Jun-09 21:29S 33°54' E 018°26'0 0.0
2019-Jun-09 20:59S 33°54' E 018°26'0 0.0
2019-Jun-09 19:56S 33°54' E 018°26'0 0.0
2019-Jun-09 19:29S 33°54' E 018°26'0 0.0
2019-Jun-09 18:59S 33°54' E 018°26'0 0.0
2019-Jun-09 18:29S 33°54' E 018°26'0 0.0
2019-Jun-09 17:56S 33°54' E 018°26'0 0.0
2019-Jun-09 17:29S 33°54' E 018°26'0 0.0
2019-Jun-09 16:59S 33°54' E 018°26'0 0.0
2019-Jun-09 16:29S 33°54' E 018°26'0 0.0
2019-Jun-09 15:59S 33°54' E 018°26'0 0.0
2019-Jun-09 15:23S 33°54' E 018°26'0 0.0
2019-Jun-09 14:59S 33°54' E 018°26'0 0.0
2019-Jun-09 14:29S 33°54' E 018°26'0 0.0
2019-Jun-09 13:56S 33°54' E 018°26'0 0.0
2019-Jun-09 13:29S 33°54' E 018°26'0 0.0
2019-Jun-09 12:56S 33°54' E 018°26'0 0.0
2019-Jun-09 12:29S 33°54' E 018°26'0 0.0
2019-Jun-09 11:56S 33°54' E 018°26'0 0.0
2019-Jun-09 11:29S 33°54' E 018°26'0 0.0
2019-Jun-09 10:59S 33°54' E 018°26'0 0.0
2019-Jun-09 10:29S 33°54' E 018°26'0 0.0
2019-Jun-09 09:53S 33°54' E 018°26'0 0.0
2019-Jun-09 09:29S 33°54' E 018°26'0 0.0
2019-Jun-09 08:59S 33°54' E 018°26'0 0.0
2019-Jun-09 08:29S 33°54' E 018°26'0 0.0
2019-Jun-09 07:59S 33°54' E 018°26'0 0.0
2019-Jun-09 07:29S 33°54' E 018°26'0 0.0
2019-Jun-09 06:56S 33°54' E 018°26'0 0.0
2019-Jun-09 06:26S 33°54' E 018°26'0 0.0
2019-Jun-09 05:59S 33°54' E 018°26'0 0.0
2019-Jun-09 05:29S 33°54' E 018°26'0 0.0
2019-Jun-09 04:59S 33°54' E 018°26'0 0.0
2019-Jun-09 03:59S 33°54' E 018°26'0 0.0
2019-Jun-09 03:29S 33°54' E 018°26'0 0.0
2019-Jun-09 02:59S 33°54' E 018°26'0 0.0
2019-Jun-09 02:29S 33°54' E 018°26'0 0.0
2019-Jun-09 01:59S 33°54' E 018°26'0 0.0
2019-Jun-09 01:29S 33°54' E 018°26'0 0.0
2019-Jun-09 00:59S 33°54' E 018°26'0 0.0
2019-Jun-09 00:29S 33°54' E 018°26'0 0.0
2019-Jun-08 23:56S 33°54' E 018°26'0 0.0
2019-Jun-08 23:29S 33°54' E 018°26'0 0.0
2019-Jun-08 22:59S 33°54' E 018°26'0 0.0
2019-Jun-08 22:29S 33°54' E 018°26'0 0.0
2019-Jun-08 21:59S 33°54' E 018°26'0 0.0
2019-Jun-08 21:29S 33°54' E 018°26'0 0.0
2019-Jun-08 20:59S 33°54' E 018°26'0 0.0
2019-Jun-08 20:29S 33°54' E 018°26'0 0.0
2019-Jun-08 19:59S 33°54' E 018°26'0 0.0
2019-Jun-08 19:28S 33°54' E 018°26'0 0.0
2019-Jun-08 18:58S 33°54' E 018°26'0 0.0
2019-Jun-08 18:28S 33°54' E 018°26'0 0.0
2019-Jun-08 17:58S 33°54' E 018°26'0 0.0
2019-Jun-08 17:28S 33°54' E 018°26'0 0.0
2019-Jun-08 16:58S 33°54' E 018°26'0 0.0
2019-Jun-08 16:28S 33°54' E 018°26'0 0.0
2019-Jun-08 15:58S 33°54' E 018°26'0 0.0
2019-Jun-08 15:28S 33°54' E 018°26'0 0.0
2019-Jun-08 14:58S 33°54' E 018°26'0 0.0
2019-Jun-08 14:28S 33°54' E 018°26'0 0.0
2019-Jun-08 13:58S 33°54' E 018°26'0 0.0
2019-Jun-08 13:28S 33°54' E 018°26'0 0.0
2019-Jun-08 12:58S 33°54' E 018°26'0 0.0
2019-Jun-08 12:28S 33°54' E 018°26'0 0.0
2019-Jun-08 11:58S 33°54' E 018°26'0 0.0
2019-Jun-08 11:28S 33°54' E 018°26'0 0.0
2019-Jun-08 10:58S 33°54' E 018°26'0 0.0
2019-Jun-08 10:25S 33°54' E 018°26'0 0.0
2019-Jun-08 09:55S 33°54' E 018°26'0 0.0
2019-Jun-08 09:28S 33°54' E 018°26'0 0.0
2019-Jun-08 08:58S 33°54' E 018°26'0 0.0
2019-Jun-08 08:28S 33°54' E 018°26'0 0.0
2019-Jun-08 07:49S 33°54' E 018°26'0 0.0
2019-Jun-08 07:28S 33°54' E 018°26'0 0.0
2019-Jun-08 06:58S 33°54' E 018°26'0 0.0
2019-Jun-08 06:28S 33°54' E 018°26'0 0.0
2019-Jun-08 05:58S 33°54' E 018°26'0 0.0
2019-Jun-08 05:25S 33°54' E 018°26'0 0.0
2019-Jun-08 04:55S 33°54' E 018°26'0 0.0
2019-Jun-08 04:28S 33°54' E 018°26'0 0.0
2019-Jun-08 03:58S 33°54' E 018°26'0 0.0
2019-Jun-08 03:28S 33°54' E 018°26'0 0.0
2019-Jun-08 02:55S 33°54' E 018°26'0 0.0
2019-Jun-08 02:28S 33°54' E 018°26'0 0.0
2019-Jun-08 01:58S 33°54' E 018°26'0 0.0
2019-Jun-08 01:28S 33°54' E 018°26'0 0.0
2019-Jun-08 00:58S 33°54' E 018°26'0 0.0
2019-Jun-08 00:28S 33°54' E 018°26'0 0.0
2019-Jun-07 23:58S 33°54' E 018°26'0 0.0
2019-Jun-07 23:28S 33°54' E 018°26'0 0.0
2019-Jun-07 22:58S 33°54' E 018°26'0 0.0
2019-Jun-07 22:28S 33°54' E 018°26'0 0.0
2019-Jun-07 21:58S 33°54' E 018°26'0 0.0
2019-Jun-07 21:28S 33°54' E 018°26'0 0.0
2019-Jun-07 20:55S 33°54' E 018°26'0 0.0
2019-Jun-07 20:28S 33°54' E 018°26'0 0.0
2019-Jun-07 19:58S 33°54' E 018°26'0 0.0
2019-Jun-07 19:25S 33°54' E 018°26'0 0.0
2019-Jun-07 18:55S 33°54' E 018°26'0 0.0
2019-Jun-07 18:28S 33°54' E 018°26'0 0.0
2019-Jun-07 17:58S 33°54' E 018°26'0 0.0
2019-Jun-07 17:28S 33°54' E 018°26'0 0.0
2019-Jun-07 16:58S 33°54' E 018°26'0 0.0
2019-Jun-07 16:28S 33°54' E 018°26'0 0.0
2019-Jun-07 15:58S 33°54' E 018°26'0 0.0
2019-Jun-07 15:25S 33°54' E 018°26'0 0.0
2019-Jun-07 14:58S 33°54' E 018°26'0 0.0
2019-Jun-07 14:22S 33°54' E 018°26'0 0.0
2019-Jun-07 13:58S 33°54' E 018°26'0 0.0
2019-Jun-07 13:31S 33°54' E 018°26'0 0.0
2019-Jun-07 12:55S 33°54' E 018°26'0 0.0
2019-Jun-07 12:27S 33°54' E 018°26'0 0.0
2019-Jun-07 12:00S 33°54' E 018°26'0 0.0
2019-Jun-07 11:30S 33°54' E 018°26'0 0.0
2019-Jun-07 11:00S 33°54' E 018°26'0 0.0
2019-Jun-07 10:30S 33°54' E 018°26'0 0.0
2019-Jun-07 10:00S 33°54' E 018°26'0 0.0
2019-Jun-07 09:30S 33°54' E 018°26'0 0.0
2019-Jun-07 08:54S 33°54' E 018°26'0 0.0
2019-Jun-07 08:27S 33°54' E 018°26'0 0.0
2019-Jun-07 07:57S 33°54' E 018°26'0 0.0
2019-Jun-07 07:30S 33°54' E 018°26'0 0.0
2019-Jun-07 07:00S 33°54' E 018°26'0 0.0
2019-Jun-07 06:30S 33°54' E 018°26'0 0.0
2019-Jun-07 06:00S 33°54' E 018°26'0 0.0
2019-Jun-07 05:30S 33°54' E 018°26'0 0.0
2019-Jun-07 05:00S 33°54' E 018°26'0 0.0
2019-Jun-07 04:30S 33°54' E 018°26'0 0.0
2019-Jun-07 04:00S 33°54' E 018°26'0 0.0
2019-Jun-07 03:30S 33°54' E 018°26'0 0.0
2019-Jun-07 03:00S 33°54' E 018°26'0 0.0
2019-Jun-07 02:30S 33°54' E 018°26'0 0.0
2019-Jun-07 02:00S 33°54' E 018°26'0 0.0
2019-Jun-07 01:30S 33°54' E 018°26'0 0.0
2019-Jun-07 01:00S 33°54' E 018°26'0 0.0
2019-Jun-07 00:30S 33°54' E 018°26'0 0.0
2019-Jun-06 23:54S 33°54' E 018°26'0 0.0
2019-Jun-06 23:30S 33°54' E 018°26'0 0.0
2019-Jun-06 23:00S 33°54' E 018°26'0 0.0
2019-Jun-06 22:30S 33°54' E 018°26'0 0.0
2019-Jun-06 21:54S 33°54' E 018°26'0 0.0
2019-Jun-06 21:24S 33°54' E 018°26'0 0.0
2019-Jun-06 21:00S 33°54' E 018°26'0 0.0
2019-Jun-06 20:06S 33°54' E 018°26'0 0.0
2019-Jun-06 20:00S 33°54' E 018°26'0 0.0
2019-Jun-06 19:24S 33°54' E 018°26'0 0.0
2019-Jun-06 18:57S 33°54' E 018°26'0 0.0
2019-Jun-06 18:24S 33°54' E 018°26'0 0.0
2019-Jun-06 17:57S 33°54' E 018°26'0 0.0
2019-Jun-06 17:30S 33°54' E 018°26'0 0.0
2019-Jun-06 16:54S 33°54' E 018°26'0 0.0
2019-Jun-06 16:30S 33°54' E 018°26'0 0.0
2019-Jun-06 16:00S 33°54' E 018°26'0 0.0
2019-Jun-06 15:27S 33°54' E 018°26'0 0.0
2019-Jun-06 15:00S 33°54' E 018°26'0 0.0
2019-Jun-06 14:27S 33°54' E 018°26'0 0.0
2019-Jun-06 14:00S 33°54' E 018°26'0 0.0
2019-Jun-06 13:30S 33°54' E 018°26'0 0.0
2019-Jun-06 13:00S 33°54' E 018°26'0 0.0
2019-Jun-06 12:30S 33°54' E 018°26'0 0.0
2019-Jun-06 11:57S 33°54' E 018°26'0 0.0
2019-Jun-06 11:24S 33°54' E 018°26'0 0.0
2019-Jun-06 10:57S 33°54' E 018°26'0 0.0
2019-Jun-06 10:30S 33°54' E 018°26'0 0.0
2019-Jun-06 10:00S 33°54' E 018°26'0 0.0
2019-Jun-06 09:30S 33°54' E 018°26'0 0.0
2019-Jun-06 08:57S 33°54' E 018°26'0 0.0
2019-Jun-06 08:24S 33°54' E 018°26'0 0.0
2019-Jun-06 07:57S 33°54' E 018°26'0 0.0
2019-Jun-06 07:21S 33°54' E 018°26'0 0.0
2019-Jun-06 07:00S 33°54' E 018°26'0 0.0
2019-Jun-06 06:30S 33°54' E 018°26'0 0.0
2019-Jun-06 06:00S 33°54' E 018°26'0 0.0
2019-Jun-06 05:23S 33°54' E 018°26'0 0.0
2019-Jun-06 04:59S 33°54' E 018°26'0 0.0
2019-Jun-06 04:26S 33°54' E 018°26'0 0.0
2019-Jun-06 03:59S 33°54' E 018°26'0 0.0
2019-Jun-06 03:29S 33°54' E 018°26'0 0.0
2019-Jun-06 02:59S 33°54' E 018°26'0 0.0
2019-Jun-06 02:29S 33°54' E 018°26'0 0.0
2019-Jun-06 01:59S 33°54' E 018°26'0 0.0
2019-Jun-06 01:29S 33°54' E 018°26'0 0.0
2019-Jun-06 00:59S 33°54' E 018°26'0 0.0
2019-Jun-06 00:29S 33°54' E 018°26'0 0.0
2019-Jun-05 23:59S 33°54' E 018°26'0 0.0
2019-Jun-05 23:26S 33°54' E 018°26'0 0.0
2019-Jun-05 22:59S 33°54' E 018°26'0 0.0
2019-Jun-05 22:29S 33°54' E 018°26'0 0.0
2019-Jun-05 21:53S 33°54' E 018°26'0 0.0
2019-Jun-05 21:29S 33°54' E 018°26'0 0.0
2019-Jun-05 20:59S 33°54' E 018°26'0 0.0
2019-Jun-05 20:29S 33°54' E 018°26'0 0.0
2019-Jun-05 19:59S 33°54' E 018°26'0 0.0
2019-Jun-05 19:29S 33°54' E 018°26'0 0.0
2019-Jun-05 18:59S 33°54' E 018°26'0 0.0
2019-Jun-05 18:29S 33°54' E 018°26'0 0.0
2019-Jun-05 17:56S 33°54' E 018°26'0 0.0
2019-Jun-05 17:29S 33°54' E 018°26'0 0.0
2019-Jun-05 16:59S 33°54' E 018°26'0 0.0
2019-Jun-05 16:29S 33°54' E 018°26'0 0.0
2019-Jun-05 15:59S 33°54' E 018°26'0 0.0
2019-Jun-05 15:29S 33°54' E 018°26'0 0.0
2019-Jun-05 14:59S 33°54' E 018°26'0 0.0
2019-Jun-05 14:29S 33°54' E 018°26'0 0.0
2019-Jun-05 13:59S 33°54' E 018°26'0 0.0
2019-Jun-05 13:29S 33°54' E 018°26'0 0.0
2019-Jun-05 12:56S 33°54' E 018°26'0 0.0
2019-Jun-05 12:29S 33°54' E 018°26'0 0.0
2019-Jun-05 11:59S 33°54' E 018°26'0 0.0
2019-Jun-05 11:29S 33°54' E 018°26'0 0.0
2019-Jun-05 10:56S 33°54' E 018°26'0 0.0
2019-Jun-05 10:29S 33°54' E 018°26'0 0.0
2019-Jun-05 09:59S 33°54' E 018°26'0 0.0
2019-Jun-05 09:29S 33°54' E 018°26'0 0.0
2019-Jun-05 08:53S 33°54' E 018°26'0 0.0
2019-Jun-05 08:29S 33°54' E 018°26'0 0.0
2019-Jun-05 07:59S 33°54' E 018°26'0 0.0
2019-Jun-05 07:29S 33°54' E 018°26'0 0.0
2019-Jun-05 06:56S 33°54' E 018°26'0 0.0
2019-Jun-05 06:29S 33°54' E 018°26'0 0.0
2019-Jun-05 05:59S 33°54' E 018°26'0 0.0
2019-Jun-05 05:29S 33°54' E 018°26'0 0.0
2019-Jun-05 04:59S 33°54' E 018°26'0 0.0
2019-Jun-05 04:29S 33°54' E 018°26'0 0.0
2019-Jun-05 03:59S 33°54' E 018°26'0 0.0
2019-Jun-05 03:29S 33°54' E 018°26'0 0.0
2019-Jun-05 02:56S 33°54' E 018°26'0 0.0
2019-Jun-05 02:26S 33°54' E 018°26'0 0.0
2019-Jun-05 01:59S 33°54' E 018°26'0 0.0
2019-Jun-05 01:29S 33°54' E 018°26'0 0.0
2019-Jun-05 00:59S 33°54' E 018°26'0 0.0
2019-Jun-05 00:29S 33°54' E 018°26'0 0.0
2019-Jun-04 23:59S 33°54' E 018°26'0 0.0
2019-Jun-04 23:26S 33°54' E 018°26'0 0.0
2019-Jun-04 22:59S 33°54' E 018°26'0 0.0
2019-Jun-04 22:28S 33°54' E 018°26'0 0.0
2019-Jun-04 21:55S 33°54' E 018°26'0 0.0
2019-Jun-04 21:25S 33°54' E 018°26'0 0.0
2019-Jun-04 20:58S 33°54' E 018°26'0 0.0
2019-Jun-04 20:22S 33°54' E 018°26'0 0.0
2019-Jun-04 19:55S 33°54' E 018°26'0 0.0
2019-Jun-04 19:25S 33°54' E 018°26'0 0.0
2019-Jun-04 18:55S 33°54' E 018°26'0 0.0
2019-Jun-04 18:25S 33°54' E 018°26'0 0.0
2019-Jun-04 17:19S 33°54' E 018°26'0 0.0
2019-Jun-04 16:49S 33°54' E 018°26'0 0.0
2019-Jun-04 16:25S 33°54' E 018°26'0 0.0
2019-Jun-04 15:58S 33°54' E 018°26'0 0.0
2019-Jun-04 15:25S 33°54' E 018°26'0 0.0
2019-Jun-04 14:58S 33°54' E 018°26'  
Track history (hours):
 
Tides and Currents Weather Stations Pressure Air Temp Water Temp Dewpoint Dewpoint Depression Visibility Wind Speed Wind Dir Waves Ship Positions

Oceanographic research ship Algoa (South Africa)

Detailed information on ship capabilities available from University of Delaware's Ocean Information Center.

Last reported at 2019-Jun-19 20:28 UTC. Time now 2019-Jun-19 20:50 UTC.
Position S 33°54' E 018°26'.

Type: Other ship. MMSI: 599996424.

Date/timePositionNaut miles runAvg speedWind from/ knotsBaromVisibWave heightAir tempDewpointWater temp
2019-Jun-19 20:28S 33°54' E 018°26'0 0.0
2019-Jun-19 19:57S 33°54' E 018°26'0 0.0
2019-Jun-19 19:21S 33°54' E 018°26'0 0.0
2019-Jun-19 18:36S 33°54' E 018°26'0 0.0
2019-Jun-19 18:22S 33°54' E 018°26'0 0.0
2019-Jun-19 17:57S 33°54' E 018°26'0 0.0
2019-Jun-19 17:26S 33°54' E 018°26'0 0.0
2019-Jun-19 16:24S 33°54' E 018°26'0 0.0
2019-Jun-19 16:00S 33°54' E 018°26'0 0.3
2019-Jun-19 15:30S 33°54' E 018°26'2 4.4
2019-Jun-19 15:00S 33°53' E 018°23'910.9
2019-Jun-19 14:10S 33°54' E 018°12'1411.1
2019-Jun-19 12:54S 33°54' E 017°55'18 8.5
2019-Jun-19 10:47S 33°56' E 017°34'  
2019-Jun-14 14:35S 33°55' E 017°52'110.0
2019-Jun-14 14:27S 33°55' E 017°53'6 9.8
2019-Jun-14 13:51S 33°55' E 018°00'10 9.8
2019-Jun-14 12:48S 33°54' E 018°13'3 9.9
2019-Jun-14 12:29S 33°54' E 018°17'5 9.6
2019-Jun-14 12:00S 33°53' E 018°22'3 6.5
2019-Jun-14 11:30S 33°54' E 018°26'0 0.5
2019-Jun-14 11:00S 33°54' E 018°26'0 0.0
2019-Jun-14 10:30S 33°54' E 018°26'0 0.0
2019-Jun-14 09:59S 33°54' E 018°26'0 0.0
2019-Jun-14 09:29S 33°54' E 018°26'0 0.0
2019-Jun-14 08:59S 33°54' E 018°26'0 0.0
2019-Jun-14 08:29S 33°54' E 018°26'0 0.0
2019-Jun-14 07:59S 33°54' E 018°26'0 0.0
2019-Jun-14 07:29S 33°54' E 018°26'0 0.0
2019-Jun-14 06:59S 33°54' E 018°26'0 0.0
2019-Jun-14 06:29S 33°54' E 018°26'0 0.0
2019-Jun-14 05:58S 33°54' E 018°26'0 0.0
2019-Jun-14 05:28S 33°54' E 018°26'0 0.0
2019-Jun-14 04:55S 33°54' E 018°26'0 0.0
2019-Jun-14 04:22S 33°54' E 018°26'0 0.0
2019-Jun-14 03:55S 33°54' E 018°26'0 0.0
2019-Jun-14 03:28S 33°54' E 018°26'0 0.0
2019-Jun-14 02:58S 33°54' E 018°26'0 0.0
2019-Jun-14 02:28S 33°54' E 018°26'0 0.0
2019-Jun-14 01:58S 33°54' E 018°26'0 0.0
2019-Jun-14 01:28S 33°54' E 018°26'0 0.0
2019-Jun-14 00:58S 33°54' E 018°26'0 0.0
2019-Jun-14 00:28S 33°54' E 018°26'0 0.0
2019-Jun-13 23:58S 33°54' E 018°26'0 0.0
2019-Jun-13 23:28S 33°54' E 018°26'0 0.0
2019-Jun-13 22:58S 33°54' E 018°26'0 0.0
2019-Jun-13 22:28S 33°54' E 018°26'0 0.0
2019-Jun-13 21:58S 33°54' E 018°26'0 0.0
2019-Jun-13 21:28S 33°54' E 018°26'0 0.0
2019-Jun-13 20:58S 33°54' E 018°26'0 0.0
2019-Jun-13 20:28S 33°54' E 018°26'0 0.0
2019-Jun-13 19:58S 33°54' E 018°26'0 0.0
2019-Jun-13 19:28S 33°54' E 018°26'0 0.0
2019-Jun-13 18:58S 33°54' E 018°26'0 0.0
2019-Jun-13 18:28S 33°54' E 018°26'0 0.0
2019-Jun-13 17:58S 33°54' E 018°26'0 0.0
2019-Jun-13 17:28S 33°54' E 018°26'0 0.0
2019-Jun-13 16:58S 33°54' E 018°26'0 0.0
2019-Jun-13 16:28S 33°54' E 018°26'0 0.0
2019-Jun-13 15:46S 33°54' E 018°26'0 0.0
2019-Jun-13 15:28S 33°54' E 018°26'0 0.0
2019-Jun-13 14:52S 33°54' E 018°26'0 0.0
2019-Jun-13 14:28S 33°54' E 018°26'0 0.0
2019-Jun-13 13:55S 33°54' E 018°26'0 0.0
2019-Jun-13 13:28S 33°54' E 018°26'0 0.0
2019-Jun-13 12:58S 33°54' E 018°26'0 0.0
2019-Jun-13 12:28S 33°54' E 018°26'0 0.0
2019-Jun-13 11:52S 33°54' E 018°26'0 0.0
2019-Jun-13 11:28S 33°54' E 018°26'0 0.0
2019-Jun-13 10:55S 33°54' E 018°26'0 0.0
2019-Jun-13 10:22S 33°54' E 018°26'0 0.0
2019-Jun-13 09:58S 33°54' E 018°26'0 0.0
2019-Jun-13 09:25S 33°54' E 018°26'0 0.0
2019-Jun-13 08:58S 33°54' E 018°26'0 0.0
2019-Jun-13 08:25S 33°54' E 018°26'0 0.0
2019-Jun-13 07:52S 33°54' E 018°26'0 0.0
2019-Jun-13 07:28S 33°54' E 018°26'0 0.0
2019-Jun-13 06:58S 33°54' E 018°26'0 0.0
2019-Jun-13 06:28S 33°54' E 018°26'0 0.0
2019-Jun-13 05:52S 33°54' E 018°26'0 0.0
2019-Jun-13 05:28S 33°54' E 018°26'0 0.0
2019-Jun-13 04:58S 33°54' E 018°26'0 0.0
2019-Jun-13 04:25S 33°54' E 018°26'0 0.0
2019-Jun-13 03:58S 33°54' E 018°26'0 0.0
2019-Jun-13 03:19S 33°54' E 018°26'0 0.0
2019-Jun-13 02:49S 33°54' E 018°26'0 0.0
2019-Jun-13 02:25S 33°54' E 018°26'0 0.0
2019-Jun-13 01:55S 33°54' E 018°26'0 0.0
2019-Jun-13 01:28S 33°54' E 018°26'0 0.0
2019-Jun-13 00:58S 33°54' E 018°26'0 0.0
2019-Jun-13 00:28S 33°54' E 018°26'0 0.0
2019-Jun-13 00:01S 33°54' E 018°26'0 0.0
2019-Jun-12 23:31S 33°54' E 018°26'0 0.0
2019-Jun-12 23:00S 33°54' E 018°26'0 0.0
2019-Jun-12 22:30S 33°54' E 018°26'0 0.0
2019-Jun-12 21:57S 33°54' E 018°26'0 0.0
2019-Jun-12 21:30S 33°54' E 018°26'0 0.0
2019-Jun-12 21:00S 33°54' E 018°26'0 0.0
2019-Jun-12 20:30S 33°54' E 018°26'0 0.0
2019-Jun-12 20:00S 33°54' E 018°26'0 0.0
2019-Jun-12 19:21S 33°54' E 018°26'0 0.0
2019-Jun-12 18:45S 33°54' E 018°26'0 0.0
2019-Jun-12 18:24S 33°54' E 018°26'0 0.0
2019-Jun-12 18:00S 33°54' E 018°26'0 0.0
2019-Jun-12 17:27S 33°54' E 018°26'0 0.0
2019-Jun-12 17:00S 33°54' E 018°26'0 0.0
2019-Jun-12 16:24S 33°54' E 018°26'0 0.0
2019-Jun-12 15:57S 33°54' E 018°26'0 0.0
2019-Jun-12 15:30S 33°54' E 018°26'0 0.0
2019-Jun-12 15:00S 33°54' E 018°26'0 0.0
2019-Jun-12 14:30S 33°54' E 018°26'0 0.0
2019-Jun-12 14:00S 33°54' E 018°26'0 0.0
2019-Jun-12 13:30S 33°54' E 018°26'0 0.0
2019-Jun-12 12:57S 33°54' E 018°26'0 0.0
2019-Jun-12 12:30S 33°54' E 018°26'0 0.0
2019-Jun-12 12:00S 33°54' E 018°26'0 0.0
2019-Jun-12 11:30S 33°54' E 018°26'0 0.0
2019-Jun-12 10:57S 33°54' E 018°26'0 0.0
2019-Jun-12 10:30S 33°54' E 018°26'0 0.0
2019-Jun-12 10:00S 33°54' E 018°26'0 0.0
2019-Jun-12 09:30S 33°54' E 018°26'0 0.0
2019-Jun-12 09:00S 33°54' E 018°26'0 0.0
2019-Jun-12 08:30S 33°54' E 018°26'0 0.0
2019-Jun-12 07:51S 33°54' E 018°26'0 0.0
2019-Jun-12 07:30S 33°54' E 018°26'0 0.0
2019-Jun-12 06:57S 33°54' E 018°26'0 0.0
2019-Jun-12 06:30S 33°54' E 018°26'0 0.0
2019-Jun-12 05:54S 33°54' E 018°26'0 0.0
2019-Jun-12 05:27S 33°54' E 018°26'0 0.0
2019-Jun-12 04:57S 33°54' E 018°26'0 0.0
2019-Jun-12 04:27S 33°54' E 018°26'0 0.0
2019-Jun-12 04:00S 33°54' E 018°26'0 0.0
2019-Jun-12 03:27S 33°54' E 018°26'0 0.0
2019-Jun-12 02:57S 33°54' E 018°26'0 0.0
2019-Jun-12 02:00S 33°54' E 018°26'0 0.0
2019-Jun-12 01:30S 33°54' E 018°26'0 0.0
2019-Jun-12 01:00S 33°54' E 018°26'0 0.0
2019-Jun-12 00:27S 33°54' E 018°26'0 0.0
2019-Jun-11 23:54S 33°54' E 018°26'0 0.0
2019-Jun-11 23:30S 33°54' E 018°26'0 0.0
2019-Jun-11 22:57S 33°54' E 018°26'0 0.0
2019-Jun-11 22:30S 33°54' E 018°26'0 0.0
2019-Jun-11 22:00S 33°54' E 018°26'0 0.0
2019-Jun-11 21:30S 33°54' E 018°26'0 0.0
2019-Jun-11 20:54S 33°54' E 018°26'0 0.0
2019-Jun-11 20:30S 33°54' E 018°26'0 0.0
2019-Jun-11 20:00S 33°54' E 018°26'0 0.0
2019-Jun-11 19:27S 33°54' E 018°26'0 0.0
2019-Jun-11 18:57S 33°54' E 018°26'0 0.0
2019-Jun-11 18:21S 33°54' E 018°26'0 0.0
2019-Jun-11 17:57S 33°54' E 018°26'0 0.0
2019-Jun-11 17:15S 33°54' E 018°26'0 0.0
2019-Jun-11 17:00S 33°54' E 018°26'0 0.0
2019-Jun-11 16:21S 33°54' E 018°26'0 0.0
2019-Jun-11 15:56S 33°54' E 018°26'0 0.0
2019-Jun-11 15:17S 33°54' E 018°26'0 0.0
2019-Jun-11 14:59S 33°54' E 018°26'0 0.0
2019-Jun-11 14:29S 33°54' E 018°26'0 0.0
2019-Jun-11 13:59S 33°54' E 018°26'0 0.0
2019-Jun-11 13:29S 33°54' E 018°26'0 0.0
2019-Jun-11 12:59S 33°54' E 018°26'0 0.0
2019-Jun-11 12:29S 33°54' E 018°26'0 0.0
2019-Jun-11 11:59S 33°54' E 018°26'0 0.0
2019-Jun-11 11:29S 33°54' E 018°26'0 0.0
2019-Jun-11 10:56S 33°54' E 018°26'0 0.0
2019-Jun-11 10:29S 33°54' E 018°26'0 0.0
2019-Jun-11 09:59S 33°54' E 018°26'0 0.0
2019-Jun-11 09:29S 33°54' E 018°26'0 0.0
2019-Jun-11 08:59S 33°54' E 018°26'0 0.0
2019-Jun-11 08:29S 33°54' E 018°26'0 0.0
2019-Jun-11 07:56S 33°54' E 018°26'0 0.0
2019-Jun-11 07:30S 33°54' E 018°26'0 0.0
2019-Jun-11 07:00S 33°54' E 018°26'0 0.0
2019-Jun-11 06:30S 33°54' E 018°26'0 0.0
2019-Jun-11 05:57S 33°54' E 018°26'0 0.0
2019-Jun-11 05:27S 33°54' E 018°26'0 0.0
2019-Jun-11 05:00S 33°54' E 018°26'0 0.0
2019-Jun-11 04:30S 33°54' E 018°26'0 0.0
2019-Jun-11 03:51S 33°54' E 018°26'0 0.0
2019-Jun-11 03:21S 33°54' E 018°26'0 0.0
2019-Jun-11 02:45S 33°54' E 018°26'0 0.0
2019-Jun-11 02:21S 33°54' E 018°26'0 0.0
2019-Jun-11 01:48S 33°54' E 018°26'0 0.0
2019-Jun-11 01:30S 33°54' E 018°26'0 0.0
2019-Jun-11 00:57S 33°54' E 018°26'0 0.0
2019-Jun-11 00:30S 33°54' E 018°26'0 0.0
2019-Jun-11 00:00S 33°54' E 018°26'0 0.0
2019-Jun-10 23:27S 33°54' E 018°26'0 0.0
2019-Jun-10 22:54S 33°54' E 018°26'0 0.0
2019-Jun-10 22:27S 33°54' E 018°26'0 0.0
2019-Jun-10 21:57S 33°54' E 018°26'0 0.0
2019-Jun-10 21:27S 33°54' E 018°26'0 0.0
2019-Jun-10 20:57S 33°54' E 018°26'0 0.0
2019-Jun-10 20:30S 33°54' E 018°26'0 0.0
2019-Jun-10 19:57S 33°54' E 018°26'0 0.0
2019-Jun-10 19:30S 33°54' E 018°26'0 0.0
2019-Jun-10 18:57S 33°54' E 018°26'0 0.0
2019-Jun-10 18:30S 33°54' E 018°26'0 0.0
2019-Jun-10 18:00S 33°54' E 018°26'0 0.0
2019-Jun-10 17:15S 33°54' E 018°26'0 0.0
2019-Jun-10 16:57S 33°54' E 018°26'0 0.0
2019-Jun-10 16:24S 33°54' E 018°26'0 0.0
2019-Jun-10 15:48S 33°54' E 018°26'0 0.0
2019-Jun-10 15:27S 33°54' E 018°26'0 0.0
2019-Jun-10 14:57S 33°54' E 018°26'0 0.0
2019-Jun-10 14:30S 33°54' E 018°26'0 0.0
2019-Jun-10 13:36S 33°54' E 018°26'0 0.0
2019-Jun-10 13:27S 33°54' E 018°26'0 0.0
2019-Jun-10 13:00S 33°54' E 018°26'0 0.0
2019-Jun-10 12:30S 33°54' E 018°26'0 0.0
2019-Jun-10 12:00S 33°54' E 018°26'0 0.0
2019-Jun-10 11:27S 33°54' E 018°26'0 0.0
2019-Jun-10 11:00S 33°54' E 018°26'0 0.0
2019-Jun-10 10:27S 33°54' E 018°26'0 0.0
2019-Jun-10 10:00S 33°54' E 018°26'0 0.0
2019-Jun-10 09:27S 33°54' E 018°26'0 0.0
2019-Jun-10 09:00S 33°54' E 018°26'0 0.0
2019-Jun-10 08:30S 33°54' E 018°26'0 0.0
2019-Jun-10 08:00S 33°54' E 018°26'0 0.0
2019-Jun-10 07:21S 33°54' E 018°26'0 0.0
2019-Jun-10 07:00S 33°54' E 018°26'0 0.0
2019-Jun-10 06:30S 33°54' E 018°26'0 0.0
2019-Jun-10 06:00S 33°54' E 018°26'0 0.0
2019-Jun-10 05:30S 33°54' E 018°26'0 0.0
2019-Jun-10 04:57S 33°54' E 018°26'0 0.0
2019-Jun-10 04:27S 33°54' E 018°26'0 0.0
2019-Jun-10 03:51S 33°54' E 018°26'0 0.0
2019-Jun-10 03:27S 33°54' E 018°26'0 0.0
2019-Jun-10 02:57S 33°54' E 018°26'0 0.0
2019-Jun-10 02:30S 33°54' E 018°26'0 0.0
2019-Jun-10 01:59S 33°54' E 018°26'0 0.0
2019-Jun-10 01:29S 33°54' E 018°26'0 0.0
2019-Jun-10 00:59S 33°54' E 018°26'0 0.0
2019-Jun-10 00:26S 33°54' E 018°26'0 0.0
2019-Jun-09 23:56S 33°54' E 018°26'0 0.0
2019-Jun-09 23:20S 33°54' E 018°26'0 0.0
2019-Jun-09 22:32S 33°54' E 018°26'0 0.0
2019-Jun-09 22:11S 33°54' E 018°26'0 0.0
2019-Jun-09 21:53S 33°54' E 018°26'0 0.0
2019-Jun-09 21:29S 33°54' E 018°26'0 0.0
2019-Jun-09 20:59S 33°54' E 018°26'0 0.0
2019-Jun-09 19:56S 33°54' E 018°26'0 0.0
2019-Jun-09 19:29S 33°54' E 018°26'0 0.0
2019-Jun-09 18:59S 33°54' E 018°26'0 0.0
2019-Jun-09 18:29S 33°54' E 018°26'0 0.0
2019-Jun-09 17:56S 33°54' E 018°26'0 0.0
2019-Jun-09 17:29S 33°54' E 018°26'0 0.0
2019-Jun-09 16:59S 33°54' E 018°26'0 0.0
2019-Jun-09 16:29S 33°54' E 018°26'0 0.0
2019-Jun-09 15:59S 33°54' E 018°26'0 0.0
2019-Jun-09 15:23S 33°54' E 018°26'0 0.0
2019-Jun-09 14:59S 33°54' E 018°26'0 0.0
2019-Jun-09 14:29S 33°54' E 018°26'0 0.0
2019-Jun-09 13:56S 33°54' E 018°26'0 0.0
2019-Jun-09 13:29S 33°54' E 018°26'0 0.0
2019-Jun-09 12:56S 33°54' E 018°26'0 0.0
2019-Jun-09 12:29S 33°54' E 018°26'0 0.0
2019-Jun-09 11:56S 33°54' E 018°26'0 0.0
2019-Jun-09 11:29S 33°54' E 018°26'0 0.0
2019-Jun-09 10:59S 33°54' E 018°26'0 0.0
2019-Jun-09 10:29S 33°54' E 018°26'0 0.0
2019-Jun-09 09:53S 33°54' E 018°26'0 0.0
2019-Jun-09 09:29S 33°54' E 018°26'0 0.0
2019-Jun-09 08:59S 33°54' E 018°26'0 0.0
2019-Jun-09 08:29S 33°54' E 018°26'0 0.0
2019-Jun-09 07:59S 33°54' E 018°26'0 0.0
2019-Jun-09 07:29S 33°54' E 018°26'0 0.0
2019-Jun-09 06:56S 33°54' E 018°26'0 0.0
2019-Jun-09 06:26S 33°54' E 018°26'0 0.0
2019-Jun-09 05:59S 33°54' E 018°26'0 0.0
2019-Jun-09 05:29S 33°54' E 018°26'0 0.0
2019-Jun-09 04:59S 33°54' E 018°26'0 0.0
2019-Jun-09 03:59S 33°54' E 018°26'0 0.0
2019-Jun-09 03:29S 33°54' E 018°26'0 0.0
2019-Jun-09 02:59S 33°54' E 018°26'0 0.0
2019-Jun-09 02:29S 33°54' E 018°26'0 0.0
2019-Jun-09 01:59S 33°54' E 018°26'0 0.0
2019-Jun-09 01:29S 33°54' E 018°26'0 0.0
2019-Jun-09 00:59S 33°54' E 018°26'0 0.0
2019-Jun-09 00:29S 33°54' E 018°26'0 0.0
2019-Jun-08 23:56S 33°54' E 018°26'0 0.0
2019-Jun-08 23:29S 33°54' E 018°26'0 0.0
2019-Jun-08 22:59S 33°54' E 018°26'0 0.0
2019-Jun-08 22:29S 33°54' E 018°26'0 0.0
2019-Jun-08 21:59S 33°54' E 018°26'0 0.0
2019-Jun-08 21:29S 33°54' E 018°26'0 0.0
2019-Jun-08 20:59S 33°54' E 018°26'0 0.0
2019-Jun-08 20:29S 33°54' E 018°26'0 0.0
2019-Jun-08 19:59S 33°54' E 018°26'0 0.0
2019-Jun-08 19:28S 33°54' E 018°26'0 0.0
2019-Jun-08 18:58S 33°54' E 018°26'0 0.0
2019-Jun-08 18:28S 33°54' E 018°26'0 0.0
2019-Jun-08 17:58S 33°54' E 018°26'0 0.0
2019-Jun-08 17:28S 33°54' E 018°26'0 0.0
2019-Jun-08 16:58S 33°54' E 018°26'0 0.0
2019-Jun-08 16:28S 33°54' E 018°26'0 0.0
2019-Jun-08 15:58S 33°54' E 018°26'0 0.0
2019-Jun-08 15:28S 33°54' E 018°26'0 0.0
2019-Jun-08 14:58S 33°54' E 018°26'0 0.0
2019-Jun-08 14:28S 33°54' E 018°26'0 0.0
2019-Jun-08 13:58S 33°54' E 018°26'0 0.0
2019-Jun-08 13:28S 33°54' E 018°26'0 0.0
2019-Jun-08 12:58S 33°54' E 018°26'0 0.0
2019-Jun-08 12:28S 33°54' E 018°26'0 0.0
2019-Jun-08 11:58S 33°54' E 018°26'0 0.0
2019-Jun-08 11:28S 33°54' E 018°26'0 0.0
2019-Jun-08 10:58S 33°54' E 018°26'0 0.0
2019-Jun-08 10:25S 33°54' E 018°26'0 0.0
2019-Jun-08 09:55S 33°54' E 018°26'0 0.0
2019-Jun-08 09:28S 33°54' E 018°26'0 0.0
2019-Jun-08 08:58S 33°54' E 018°26'0 0.0
2019-Jun-08 08:28S 33°54' E 018°26'0 0.0
2019-Jun-08 07:49S 33°54' E 018°26'0 0.0
2019-Jun-08 07:28S 33°54' E 018°26'0 0.0
2019-Jun-08 06:58S 33°54' E 018°26'0 0.0
2019-Jun-08 06:28S 33°54' E 018°26'0 0.0
2019-Jun-08 05:58S 33°54' E 018°26'0 0.0
2019-Jun-08 05:25S 33°54' E 018°26'0 0.0
2019-Jun-08 04:55S 33°54' E 018°26'0 0.0
2019-Jun-08 04:28S 33°54' E 018°26'0 0.0
2019-Jun-08 03:58S 33°54' E 018°26'0 0.0
2019-Jun-08 03:28S 33°54' E 018°26'0 0.0
2019-Jun-08 02:55S 33°54' E 018°26'0 0.0
2019-Jun-08 02:28S 33°54' E 018°26'0 0.0
2019-Jun-08 01:58S 33°54' E 018°26'0 0.0
2019-Jun-08 01:28S 33°54' E 018°26'0 0.0
2019-Jun-08 00:58S 33°54' E 018°26'0 0.0
2019-Jun-08 00:28S 33°54' E 018°26'0 0.0
2019-Jun-07 23:58S 33°54' E 018°26'0 0.0
2019-Jun-07 23:28S 33°54' E 018°26'0 0.0
2019-Jun-07 22:58S 33°54' E 018°26'0 0.0
2019-Jun-07 22:28S 33°54' E 018°26'0 0.0
2019-Jun-07 21:58S 33°54' E 018°26'0 0.0
2019-Jun-07 21:28S 33°54' E 018°26'0 0.0
2019-Jun-07 20:55S 33°54' E 018°26'0 0.0
2019-Jun-07 20:28S 33°54' E 018°26'0 0.0
2019-Jun-07 19:58S 33°54' E 018°26'0 0.0
2019-Jun-07 19:25S 33°54' E 018°26'0 0.0
2019-Jun-07 18:55S 33°54' E 018°26'0 0.0
2019-Jun-07 18:28S 33°54' E 018°26'0 0.0
2019-Jun-07 17:58S 33°54' E 018°26'0 0.0
2019-Jun-07 17:28S 33°54' E 018°26'0 0.0
2019-Jun-07 16:58S 33°54' E 018°26'0 0.0
2019-Jun-07 16:28S 33°54' E 018°26'0 0.0
2019-Jun-07 15:58S 33°54' E 018°26'0 0.0
2019-Jun-07 15:25S 33°54' E 018°26'0 0.0
2019-Jun-07 14:58S 33°54' E 018°26'0 0.0
2019-Jun-07 14:22S 33°54' E 018°26'0 0.0
2019-Jun-07 13:58S 33°54' E 018°26'0 0.0
2019-Jun-07 13:31S 33°54' E 018°26'0 0.0
2019-Jun-07 12:55S 33°54' E 018°26'0 0.0
2019-Jun-07 12:27S 33°54' E 018°26'0 0.0
2019-Jun-07 12:00S 33°54' E 018°26'0 0.0
2019-Jun-07 11:30S 33°54' E 018°26'0 0.0
2019-Jun-07 11:00S 33°54' E 018°26'0 0.0
2019-Jun-07 10:30S 33°54' E 018°26'0 0.0
2019-Jun-07 10:00S 33°54' E 018°26'0 0.0
2019-Jun-07 09:30S 33°54' E 018°26'0 0.0
2019-Jun-07 08:54S 33°54' E 018°26'0 0.0
2019-Jun-07 08:27S 33°54' E 018°26'0 0.0
2019-Jun-07 07:57S 33°54' E 018°26'0 0.0
2019-Jun-07 07:30S 33°54' E 018°26'0 0.0
2019-Jun-07 07:00S 33°54' E 018°26'0 0.0
2019-Jun-07 06:30S 33°54' E 018°26'0 0.0
2019-Jun-07 06:00S 33°54' E 018°26'0 0.0
2019-Jun-07 05:30S 33°54' E 018°26'0 0.0
2019-Jun-07 05:00S 33°54' E 018°26'0 0.0
2019-Jun-07 04:30S 33°54' E 018°26'0 0.0
2019-Jun-07 04:00S 33°54' E 018°26'0 0.0
2019-Jun-07 03:30S 33°54' E 018°26'0 0.0
2019-Jun-07 03:00S 33°54' E 018°26'0 0.0
2019-Jun-07 02:30S 33°54' E 018°26'0 0.0
2019-Jun-07 02:00S 33°54' E 018°26'0 0.0
2019-Jun-07 01:30S 33°54' E 018°26'0 0.0
2019-Jun-07 01:00S 33°54' E 018°26'0 0.0
2019-Jun-07 00:30S 33°54' E 018°26'0 0.0
2019-Jun-06 23:54S 33°54' E 018°26'0 0.0
2019-Jun-06 23:30S 33°54' E 018°26'0 0.0
2019-Jun-06 23:00S 33°54' E 018°26'0 0.0
2019-Jun-06 22:30S 33°54' E 018°26'0 0.0
2019-Jun-06 21:54S 33°54' E 018°26'0 0.0
2019-Jun-06 21:24S 33°54' E 018°26'0 0.0
2019-Jun-06 21:00S 33°54' E 018°26'0 0.0
2019-Jun-06 20:06S 33°54' E 018°26'0 0.0
2019-Jun-06 20:00S 33°54' E 018°26'0 0.0
2019-Jun-06 19:24S 33°54' E 018°26'0 0.0
2019-Jun-06 18:57S 33°54' E 018°26'0 0.0
2019-Jun-06 18:24S 33°54' E 018°26'0 0.0
2019-Jun-06 17:57S 33°54' E 018°26'0 0.0
2019-Jun-06 17:30S 33°54' E 018°26'0 0.0
2019-Jun-06 16:54S 33°54' E 018°26'0 0.0
2019-Jun-06 16:30S 33°54' E 018°26'0 0.0
2019-Jun-06 16:00S 33°54' E 018°26'0 0.0
2019-Jun-06 15:27S 33°54' E 018°26'0 0.0
2019-Jun-06 15:00S 33°54' E 018°26'0 0.0
2019-Jun-06 14:27S 33°54' E 018°26'0 0.0
2019-Jun-06 14:00S 33°54' E 018°26'0 0.0
2019-Jun-06 13:30S 33°54' E 018°26'0 0.0
2019-Jun-06 13:00S 33°54' E 018°26'0 0.0
2019-Jun-06 12:30S 33°54' E 018°26'0 0.0
2019-Jun-06 11:57S 33°54' E 018°26'0 0.0
2019-Jun-06 11:24S 33°54' E 018°26'0 0.0
2019-Jun-06 10:57S 33°54' E 018°26'0 0.0
2019-Jun-06 10:30S 33°54' E 018°26'0 0.0
2019-Jun-06 10:00S 33°54' E 018°26'0 0.0
2019-Jun-06 09:30S 33°54' E 018°26'0 0.0
2019-Jun-06 08:57S 33°54' E 018°26'0 0.0
2019-Jun-06 08:24S 33°54' E 018°26'0 0.0
2019-Jun-06 07:57S 33°54' E 018°26'0 0.0
2019-Jun-06 07:21S 33°54' E 018°26'0 0.0
2019-Jun-06 07:00S 33°54' E 018°26'0 0.0
2019-Jun-06 06:30S 33°54' E 018°26'0 0.0
2019-Jun-06 06:00S 33°54' E 018°26'0 0.0
2019-Jun-06 05:23S 33°54' E 018°26'0 0.0
2019-Jun-06 04:59S 33°54' E 018°26'0 0.0
2019-Jun-06 04:26S 33°54' E 018°26'0 0.0
2019-Jun-06 03:59S 33°54' E 018°26'0 0.0
2019-Jun-06 03:29S 33°54' E 018°26'0 0.0
2019-Jun-06 02:59S 33°54' E 018°26'0 0.0
2019-Jun-06 02:29S 33°54' E 018°26'0 0.0
2019-Jun-06 01:59S 33°54' E 018°26'0 0.0
2019-Jun-06 01:29S 33°54' E 018°26'0 0.0
2019-Jun-06 00:59S 33°54' E 018°26'0 0.0
2019-Jun-06 00:29S 33°54' E 018°26'0 0.0
2019-Jun-05 23:59S 33°54' E 018°26'0 0.0
2019-Jun-05 23:26S 33°54' E 018°26'0 0.0
2019-Jun-05 22:59S 33°54' E 018°26'0 0.0
2019-Jun-05 22:29S 33°54' E 018°26'0 0.0
2019-Jun-05 21:53S 33°54' E 018°26'0 0.0
2019-Jun-05 21:29S 33°54' E 018°26'0 0.0
2019-Jun-05 20:59S 33°54' E 018°26'0 0.0
2019-Jun-05 20:29S 33°54' E 018°26'0 0.0
2019-Jun-05 19:59S 33°54' E 018°26'0 0.0
2019-Jun-05 19:29S 33°54' E 018°26'0 0.0
2019-Jun-05 18:59S 33°54' E 018°26'0 0.0
2019-Jun-05 18:29S 33°54' E 018°26'0 0.0
2019-Jun-05 17:56S 33°54' E 018°26'0 0.0
2019-Jun-05 17:29S 33°54' E 018°26'0 0.0
2019-Jun-05 16:59S 33°54' E 018°26'0 0.0
2019-Jun-05 16:29S 33°54' E 018°26'0 0.0
2019-Jun-05 15:59S 33°54' E 018°26'0 0.0
2019-Jun-05 15:29S 33°54' E 018°26'0 0.0
2019-Jun-05 14:59S 33°54' E 018°26'0 0.0
2019-Jun-05 14:29S 33°54' E 018°26'0 0.0
2019-Jun-05 13:59S 33°54' E 018°26'0 0.0
2019-Jun-05 13:29S 33°54' E 018°26'0 0.0
2019-Jun-05 12:56S 33°54' E 018°26'0 0.0
2019-Jun-05 12:29S 33°54' E 018°26'0 0.0
2019-Jun-05 11:59S 33°54' E 018°26'0 0.0
2019-Jun-05 11:29S 33°54' E 018°26'0 0.0
2019-Jun-05 10:56S 33°54' E 018°26'0 0.0
2019-Jun-05 10:29S 33°54' E 018°26'0 0.0
2019-Jun-05 09:59S 33°54' E 018°26'0 0.0
2019-Jun-05 09:29S 33°54' E 018°26'0 0.0
2019-Jun-05 08:53S 33°54' E 018°26'0 0.0
2019-Jun-05 08:29S 33°54' E 018°26'0 0.0
2019-Jun-05 07:59S 33°54' E 018°26'0 0.0
2019-Jun-05 07:29S 33°54' E 018°26'0 0.0
2019-Jun-05 06:56S 33°54' E 018°26'0 0.0
2019-Jun-05 06:29S 33°54' E 018°26'0 0.0
2019-Jun-05 05:59S 33°54' E 018°26'0 0.0
2019-Jun-05 05:29S 33°54' E 018°26'0 0.0
2019-Jun-05 04:59S 33°54' E 018°26'0 0.0
2019-Jun-05 04:29S 33°54' E 018°26'0 0.0
2019-Jun-05 03:59S 33°54' E 018°26'0 0.0
2019-Jun-05 03:29S 33°54' E 018°26'0 0.0
2019-Jun-05 02:56S 33°54' E 018°26'0 0.0
2019-Jun-05 02:26S 33°54' E 018°26'0 0.0
2019-Jun-05 01:59S 33°54' E 018°26'0 0.0
2019-Jun-05 01:29S 33°54' E 018°26'0 0.0
2019-Jun-05 00:59S 33°54' E 018°26'0 0.0
2019-Jun-05 00:29S 33°54' E 018°26'0 0.0
2019-Jun-04 23:59S 33°54' E 018°26'0 0.0
2019-Jun-04 23:26S 33°54' E 018°26'0 0.0
2019-Jun-04 22:59S 33°54' E 018°26'0 0.0
2019-Jun-04 22:28S 33°54' E 018°26'0 0.0
2019-Jun-04 21:55S 33°54' E 018°26'0 0.0
2019-Jun-04 21:25S 33°54' E 018°26'0 0.0
2019-Jun-04 20:58S 33°54' E 018°26'0 0.0
2019-Jun-04 20:22S 33°54' E 018°26'0 0.0
2019-Jun-04 19:55S 33°54' E 018°26'0 0.0
2019-Jun-04 19:25S 33°54' E 018°26'0 0.0
2019-Jun-04 18:55S 33°54' E 018°26'0 0.0
2019-Jun-04 18:25S 33°54' E 018°26'0 0.0
2019-Jun-04 17:19S 33°54' E 018°26'0 0.0
2019-Jun-04 16:49S 33°54' E 018°26'0 0.0
2019-Jun-04 16:25S 33°54' E 018°26'0 0.0
2019-Jun-04 15:58S 33°54' E 018°26'0 0.0
2019-Jun-04 15:25S 33°54' E 018°26'0 0.0
2019-Jun-04 14:58S 33°54' E 018°26'  

Dump ship's entire track history